Déline Airport
CYWJ : now visible

Airfield :











YOU CAN JOIN US ON...

 
LOGIN :

Register | Disclaimer

   EN    FR    IT 

 









Legend :    VFR   Marginal VFR   IFR   Intensive IFR   Very Intensive IFR
Visi :
Ceiling :
>= 8 km
>= 3000ft
5 to 8 km
1000 to 3000 ft
1500m to 5 km
500 to 1000 ft
800 to 1500m
200 to 500 ft
< 800m
< 200 ft
Symbols :   Thunderstorms  Fog  Heavy snow  Heavy precipitations  Wind > 20 kt






- Airport Elevation : 703 ft
- IATA code : YWJ


CYWJ - Déline

CURRENT METAR :
  • 222300Z 31021G30KT 30SM SCT045 BKN130 16/04 A2967 RMK CU4AC1 LAST STFD OBS/NXT 231300 UTC SLP056 DENSITY ALT 1400FT

EXPIRED METARs :
  • 222200Z 31022G32KT 30SM SCT040 BKN130 14/04 A2967 RMK CU3AC3 SLP057 DENSITY ALT 1100FT
  • 222100Z 30017G29KT 30SM SCT040 BKN120 14/04 A2966 RMK CU3AC3 SLP052 DENSITY ALT 1100FT

Expired Forecast.
CZEG FIR / North America



MET'MAP, your aeronautical weather chart ! - Copyright ORBIFLY December 2007 - Disclaimer

ORBIFLY MET'MAP TEAM :

Programming & Development : Alexandra Zaïnal
Concept & original design : Baudouin d'Aumeries
Assistance for programming : Marc-Olivier Méhu
Technical & hardware support : Manuel Goepfert

Contact : metmap@orbifly.com




SOURCES & CREDITS :

   NOAA       Earth
Advisory